Time;durP1;ratioP1;P1;durP2;ratioP2;P2;SDS_P1;SDS_P2;PMS_P1;PMS_P2;Temp;Humidity;BMP_temperature;BMP_pressure;BME280_temperature;BME280_humidity;BME280_pressure;Samples;Min_cycle;Max_cycle;Signal;HPM_P1;HPM_P2
2022/05/22 00:01:36;;;;;;;1.75;1.58;;;;;;;21.39;46.31;97816.53;5034167;28;20278;-60
2022/05/22 00:04:02;;;;;;;4.15;2.15;;;;;;;21.56;47.83;97796.88;5044600;28;20323;-60
2022/05/22 00:06:28;;;;;;;2.88;1.40;;;;;;;21.65;46.25;97806.25;5041607;28;20692;-60
2022/05/22 00:08:53;;;;;;;2.05;1.60;;;;;;;21.61;46.53;97805.03;5030532;28;21004;-60
2022/05/22 00:11:18;;;;;;;2.70;1.90;;;;;;;21.52;47.34;97787.69;5018339;28;20189;-60
2022/05/22 00:13:44;;;;;;;1.77;1.67;;;;;;;21.58;46.93;97794.84;5019033;28;20260;-60
2022/05/22 00:18:54;;;;;;;1.70;1.60;;;;;;;21.63;47.70;97792.47;5033752;28;20275;-60
2022/05/22 00:21:19;;;;;;;2.15;1.98;;;;;;;21.47;48.28;97784.81;5043381;28;20650;-60
2022/05/22 00:23:45;;;;;;;2.55;1.73;;;;;;;21.53;47.84;97784.06;5039365;28;20189;-60
2022/05/22 00:26:10;;;;;;;2.92;1.60;;;;;;;21.44;49.18;97787.84;5039813;28;20223;-60
2022/05/22 00:28:36;;;;;;;2.90;1.70;;;;;;;21.56;49.21;97781.06;5044183;28;20184;-60
2022/05/22 00:31:01;;;;;;;2.63;1.63;;;;;;;21.50;48.25;97779.19;5030942;28;20671;-60
2022/05/22 00:33:28;;;;;;;1.92;1.58;;;;;;;21.53;48.25;97782.25;5018038;28;20246;-60
2022/05/22 00:35:54;;;;;;;2.03;1.92;;;;;;;21.47;50.38;97777.75;5019470;28;20186;-60
2022/05/22 00:38:19;;;;;;;1.70;1.60;;;;;;;21.50;48.63;97781.81;5030294;28;20683;-60
2022/05/22 00:40:44;;;;;;;2.58;1.73;;;;;;;21.49;49.53;97780.16;5043266;28;20192;-60
2022/05/22 00:43:31;;;;;;;2.90;1.75;;;;;;;21.60;52.36;97777.03;5028277;28;20190;-60
2022/05/22 00:45:58;;;;;;;3.03;1.88;;;;;;;21.68;53.30;97777.75;5034195;28;20185;-60
2022/05/22 00:48:25;;;;;;;5.90;2.90;;;;;;;21.86;53.57;97780.72;5039332;28;20291;-60
2022/05/22 00:50:52;;;;;;;3.45;2.47;;;;;;;22.11;53.28;97778.50;5037328;28;20195;-60
2022/05/22 00:53:21;;;;;;;7.72;2.33;;;;;;;22.24;52.55;97773.31;5028755;28;20189;-61
2022/05/22 00:55:46;;;;;;;2.58;2.13;;;;;;;22.36;52.69;97775.22;5018280;28;20251;-60
2022/05/22 00:58:16;;;;;;;2.17;2.00;;;;;;;22.37;51.36;97770.78;5030201;28;20225;-60
2022/05/22 01:00:41;;;;;;;3.65;2.13;;;;;;;22.34;50.92;97776.41;5042857;28;20188;-60
2022/05/22 01:03:27;;;;;;;2.40;2.20;;;;;;;22.24;51.08;97775.94;5033194;28;20277;-60
2022/05/22 01:06:03;;;;;;;1.98;1.88;;;;;;;22.21;51.46;97776.34;5033589;28;20197;-60
2022/05/22 01:08:31;;;;;;;1.88;1.77;;;;;;;22.22;51.71;97754.25;5037174;28;20177;-60
2022/05/22 01:11:03;;;;;;;2.58;2.10;;;;;;;22.37;51.33;97766.28;5036747;28;20216;-62
2022/05/22 01:13:49;;;;;;;2.25;1.95;;;;;;;22.39;51.95;97771.38;5029294;28;20185;-60
2022/05/22 01:16:14;;;;;;;3.70;2.05;;;;;;;22.28;51.70;97756.94;5017688;28;20616;-60
2022/05/22 01:18:51;;;;;;;2.15;2.00;;;;;;;22.31;51.76;97745.19;5021298;28;20201;-60
2022/05/22 01:21:25;;;;;;;5.22;2.15;;;;;;;22.36;52.33;97759.41;5027331;28;20177;-60
2022/05/22 01:23:51;;;;;;;2.40;2.20;;;;;;;22.32;51.55;97752.09;5040035;28;20693;-60
2022/05/22 01:26:18;;;;;;;2.28;2.00;;;;;;;22.30;51.09;97757.53;5041772;28;20189;-60
2022/05/22 01:28:44;;;;;;;3.17;2.22;;;;;;;22.38;51.88;97760.00;5028801;28;20181;-61
2022/05/22 01:31:10;;;;;;;3.53;2.35;;;;;;;22.37;51.27;97750.47;5035666;28;20184;-60
2022/05/22 01:33:37;;;;;;;3.47;2.40;;;;;;;22.53;51.48;97759.91;5045395;28;20189;-60
2022/05/22 01:36:03;;;;;;;3.15;2.35;;;;;;;22.65;51.56;97748.63;5034679;28;20188;-60
2022/05/22 01:38:29;;;;;;;4.40;2.25;;;;;;;22.66;52.43;97738.91;5037931;28;20220;-60
2022/05/22 01:40:55;;;;;;;2.67;2.20;;;;;;;22.71;52.19;97747.00;5038669;28;20185;-60
2022/05/22 01:43:20;;;;;;;2.42;2.30;;;;;;;22.74;51.98;97742.19;5032590;28;20204;-60
2022/05/22 01:45:46;;;;;;;2.40;2.20;;;;;;;22.88;52.64;97745.66;5032375;28;20186;-60
2022/05/22 01:48:12;;;;;;;7.65;2.40;;;;;;;22.92;52.44;97750.38;5027952;28;20181;-60
2022/05/22 01:50:39;;;;;;;3.42;2.38;;;;;;;22.94;52.61;97748.34;5034913;28;20232;-60
2022/05/22 01:53:05;;;;;;;4.70;2.60;;;;;;;22.95;52.25;97744.69;5033480;28;20188;-61
2022/05/22 01:55:31;;;;;;;2.90;2.50;;;;;;;23.06;53.30;97744.09;5020613;28;20193;-60
2022/05/22 01:57:57;;;;;;;5.15;2.40;;;;;;;23.04;53.01;97742.69;5016584;28;20267;-60
2022/05/22 02:00:24;;;;;;;5.22;2.60;;;;;;;23.02;53.17;97734.16;5019309;28;20194;-61
2022/05/22 02:02:50;;;;;;;3.67;2.58;;;;;;;23.01;52.78;97743.09;5038851;28;20186;-61
2022/05/22 02:05:17;;;;;;;2.50;2.00;;;;;;;22.95;48.59;97741.25;5034840;28;20184;-61
2022/05/22 02:10:28;;;;;;;6.55;3.30;;;;;;;22.50;50.05;97733.97;5046589;28;21073;-61
2022/05/22 02:12:53;;;;;;;3.20;2.60;;;;;;;22.57;50.44;97734.78;5040869;28;20191;-60
2022/05/22 02:15:20;;;;;;;3.85;2.95;;;;;;;22.40;51.70;97734.28;5041340;28;20570;-60
2022/05/22 02:17:45;;;;;;;2.97;2.03;;;;;;;22.37;51.30;97733.88;5034126;28;20228;-60
2022/05/22 02:20:11;;;;;;;2.53;2.33;;;;;;;22.36;51.95;97733.03;5037136;28;20281;-61
2022/05/22 02:22:42;;;;;;;6.38;3.42;;;;;;;22.31;51.67;97734.66;5035308;28;20177;-61
2022/05/22 02:25:08;;;;;;;8.35;3.45;;;;;;;22.31;51.48;97732.00;5037960;28;20173;-61
2022/05/22 02:27:33;;;;;;;6.15;2.85;;;;;;;22.37;54.05;97728.59;5036552;28;20204;-61
2022/05/22 02:30:00;;;;;;;3.55;2.95;;;;;;;22.38;52.39;97731.00;5035033;28;20642;-60
2022/05/22 02:32:25;;;;;;;4.47;3.65;;;;;;;22.37;51.89;97734.66;5038297;28;20192;-60
2022/05/22 02:34:51;;;;;;;4.40;3.85;;;;;;;22.39;52.43;97737.13;5035131;28;20265;-61
2022/05/22 02:37:16;;;;;;;3.78;3.47;;;;;;;22.44;52.20;97740.00;5025403;28;20276;-60
2022/05/22 02:39:42;;;;;;;6.40;3.30;;;;;;;22.41;52.37;97740.34;5015863;28;20260;-61
2022/05/22 02:42:07;;;;;;;5.95;2.20;;;;;;;22.27;51.63;97738.66;5018046;28;20186;-61
2022/05/22 02:44:33;;;;;;;2.63;2.30;;;;;;;22.28;52.03;97746.38;5034586;28;20190;-60
2022/05/22 02:46:58;;;;;;;2.58;2.20;;;;;;;22.16;51.42;97733.94;5039951;28;20185;-60
2022/05/22 02:49:24;;;;;;;5.22;2.30;;;;;;;22.10;51.62;97735.53;5035203;28;20214;-60
2022/05/22 02:51:50;;;;;;;4.70;2.30;;;;;;;21.93;51.56;97725.47;5038374;28;20666;-60
2022/05/22 02:54:15;;;;;;;5.45;2.20;;;;;;;21.68;53.50;97740.88;5030780;28;20714;-60
2022/05/22 02:56:41;;;;;;;2.60;1.85;;;;;;;21.66;53.47;97737.59;5033354;28;20225;-60
2022/05/22 02:59:07;;;;;;;3.47;1.88;;;;;;;21.46;54.65;97733.16;5021672;28;20214;-60
2022/05/22 03:01:33;;;;;;;2.65;2.05;;;;;;;21.39;56.28;97732.31;5018551;28;20194;-60
2022/05/22 03:03:58;;;;;;;3.22;2.20;;;;;;;21.16;58.83;97724.59;5024414;28;20267;-60
2022/05/22 03:06:39;;;;;;;2.83;1.85;;;;;;;21.02;59.04;97714.94;5038264;28;20186;-60
2022/05/22 03:09:14;;;;;;;3.35;2.10;;;;;;;21.08;58.07;97734.41;5034515;28;20558;-60
2022/05/22 03:11:40;;;;;;;1.85;1.75;;;;;;;20.99;58.39;97736.34;5042687;28;20276;-60
2022/05/22 03:14:07;;;;;;;2.97;2.38;;;;;;;21.02;59.53;97740.41;5039450;28;20276;-60
2022/05/22 03:16:33;;;;;;;5.07;2.58;;;;;;;20.91;57.96;97731.22;5046485;28;20197;-60
2022/05/22 03:18:59;;;;;;;2.33;2.13;;;;;;;20.97;57.89;97737.56;5038346;28;20221;-60
2022/05/22 03:21:27;;;;;;;2.67;2.30;;;;;;;20.82;57.02;97745.44;5025990;28;20254;-60
2022/05/22 03:23:53;;;;;;;3.20;2.38;;;;;;;20.76;58.42;97745.38;5038169;28;20196;-60
2022/05/22 03:26:19;;;;;;;3.80;2.42;;;;;;;20.69;57.29;97749.72;5030198;28;20671;-60
2022/05/22 03:28:44;;;;;;;2.47;2.17;;;;;;;20.66;58.07;97744.81;5041847;28;20194;-60
2022/05/22 03:31:10;;;;;;;4.13;2.25;;;;;;;20.65;58.21;97749.28;5041942;28;20177;-60
2022/05/22 03:33:35;;;;;;;3.97;2.28;;;;;;;20.64;60.08;97744.22;5029313;28;20190;-60
2022/05/22 03:36:01;;;;;;;5.43;2.30;;;;;;;20.66;58.95;97744.81;5041926;28;20185;-60
2022/05/22 03:38:26;;;;;;;9.70;2.80;;;;;;;20.80;59.00;97746.63;5032970;28;20968;-61
2022/05/22 03:40:52;;;;;;;3.38;2.47;;;;;;;20.88;58.90;97751.78;5029141;28;20186;-61
2022/05/22 03:43:17;;;;;;;5.03;3.00;;;;;;;21.01;59.04;97749.31;5018952;28;20190;-60
2022/05/22 03:45:44;;;;;;;4.70;2.85;;;;;;;21.11;58.66;97757.72;5022315;28;20185;-61
2022/05/22 03:48:10;;;;;;;3.00;2.75;;;;;;;20.99;58.21;97725.03;5041329;28;20203;-60
2022/05/22 03:50:36;;;;;;;3.92;2.35;;;;;;;21.26;59.74;97761.09;5046732;28;20196;-60
2022/05/22 03:53:02;;;;;;;2.67;2.47;;;;;;;21.31;57.50;97762.19;5038871;28;20225;-60
2022/05/22 03:55:28;;;;;;;3.85;3.20;;;;;;;21.30;56.85;97749.22;5029085;28;20193;-60
2022/05/22 03:57:54;;;;;;;5.35;3.00;;;;;;;21.42;57.15;97758.25;5039644;28;20224;-61
2022/05/22 04:00:21;;;;;;;3.13;2.83;;;;;;;21.58;56.73;97771.16;5043385;28;20187;-60
2022/05/22 04:02:47;;;;;;;3.70;2.60;;;;;;;21.68;52.69;97766.41;5038581;28;20193;-61
2022/05/22 04:05:13;;;;;;;5.72;2.60;;;;;;;21.84;51.53;97768.75;5038931;28;21040;-61
2022/05/22 04:07:43;;;;;;;2.85;1.98;;;;;;;22.06;49.13;97767.72;5042260;28;20678;-60
2022/05/22 04:10:10;;;;;;;2.10;1.90;;;;;;;22.25;47.78;97767.06;5039058;28;20181;-60
2022/05/22 04:12:37;;;;;;;3.30;2.10;;;;;;;22.54;46.19;97774.72;5037919;28;20594;-60
2022/05/22 04:15:04;;;;;;;4.20;2.13;;;;;;;22.68;46.20;97784.34;5039024;28;20189;-60
2022/05/22 04:17:30;;;;;;;2.80;1.60;;;;;;;22.84;45.80;97773.47;5041909;28;20200;-60
2022/05/22 04:19:55;;;;;;;3.45;1.95;;;;;;;22.99;46.07;97782.88;5031874;28;20185;-61
2022/05/22 04:22:21;;;;;;;3.38;1.95;;;;;;;23.11;46.30;97780.44;5044790;28;20405;-61
2022/05/22 04:27:30;;;;;;;4.10;1.83;;;;;;;23.21;44.42;97791.47;5039901;28;20215;-61
2022/05/22 04:29:56;;;;;;;2.20;2.00;;;;;;;23.22;46.54;97801.03;5031079;28;20636;-60
2022/05/22 04:32:21;;;;;;;2.22;2.08;;;;;;;23.21;48.08;97802.88;5033932;28;20643;-60
2022/05/22 04:34:47;;;;;;;3.05;1.80;;;;;;;23.31;45.73;97803.28;5039179;28;20549;-60
2022/05/22 04:37:13;;;;;;;2.20;1.95;;;;;;;23.34;44.20;97802.06;5035512;28;20680;-60
2022/05/22 04:39:38;;;;;;;5.88;2.20;;;;;;;23.42;43.23;97804.53;5036624;28;20207;-60
2022/05/22 04:42:04;;;;;;;3.28;1.63;;;;;;;23.41;42.92;97795.81;5043573;28;20193;-61
2022/05/22 04:44:30;;;;;;;2.22;1.60;;;;;;;23.29;43.72;97775.44;5034385;28;20846;-61
2022/05/22 04:46:55;;;;;;;1.85;1.60;;;;;;;23.49;41.52;97813.28;5037522;28;20180;-61
2022/05/22 04:49:21;;;;;;;1.70;1.60;;;;;;;23.55;42.03;97815.13;5040963;28;20191;-61
2022/05/22 04:51:46;;;;;;;3.20;2.13;;;;;;;23.49;43.85;97802.72;5042015;28;20358;-60
2022/05/22 04:54:12;;;;;;;1.98;1.67;;;;;;;23.53;41.10;97814.53;5030772;28;20193;-60
2022/05/22 04:56:37;;;;;;;5.53;2.05;;;;;;;23.53;41.31;97812.69;5036162;28;20228;-60
2022/05/22 04:59:03;;;;;;;6.20;1.75;;;;;;;23.46;42.87;97805.75;5034453;28;20694;-60
2022/05/22 05:01:28;;;;;;;1.75;1.65;;;;;;;23.46;44.96;97811.03;5046546;28;20194;-60
2022/05/22 05:03:54;;;;;;;2.78;1.52;;;;;;;23.52;40.56;97815.50;5037886;28;20182;-60
2022/05/22 05:06:19;;;;;;;1.70;1.50;;;;;;;23.62;41.29;97802.75;5019300;28;20189;-60
2022/05/22 05:08:45;;;;;;;1.67;1.42;;;;;;;23.66;41.71;97809.25;5018523;28;20185;-61
2022/05/22 05:11:11;;;;;;;3.42;1.63;;;;;;;23.80;42.40;97812.50;5033481;28;20352;-60
2022/05/22 05:13:37;;;;;;;2.75;1.75;;;;;;;23.79;41.86;97813.53;5037673;28;20656;-60
2022/05/22 05:16:04;;;;;;;2.40;1.70;;;;;;;23.81;42.18;97811.50;5033670;28;20210;-60
2022/05/22 05:18:30;;;;;;;6.97;2.38;;;;;;;23.81;46.67;97808.84;5041282;28;20205;-60
2022/05/22 05:20:59;;;;;;;1.80;1.70;;;;;;;23.96;40.22;97810.53;5043702;28;20181;-60
2022/05/22 05:23:24;;;;;;;1.83;1.58;;;;;;;24.02;39.67;97822.94;5046009;28;20200;-60
2022/05/22 05:25:50;;;;;;;3.05;1.50;;;;;;;24.06;38.77;97821.50;5028771;28;20665;-60
2022/05/22 05:28:15;;;;;;;2.00;1.70;;;;;;;24.12;38.44;97828.63;5016849;28;20212;-60
2022/05/22 05:30:41;;;;;;;3.72;1.50;;;;;;;24.21;38.35;97821.09;5018599;28;20250;-60
2022/05/22 05:33:07;;;;;;;4.95;1.40;;;;;;;24.29;38.78;97812.13;5028026;28;20181;-60
2022/05/22 05:35:33;;;;;;;1.90;1.70;;;;;;;24.17;41.86;97805.03;5041988;28;20177;-60
2022/05/22 05:37:58;;;;;;;2.63;1.55;;;;;;;24.19;40.22;97812.56;5030348;28;20213;-60
2022/05/22 05:40:24;;;;;;;1.90;1.50;;;;;;;24.26;37.25;97823.13;5043304;28;20188;-61
2022/05/22 05:42:49;;;;;;;3.25;1.88;;;;;;;24.19;39.06;97817.00;5041379;28;20189;-60
2022/05/22 05:45:17;;;;;;;5.35;1.58;;;;;;;24.19;38.25;97820.47;5033803;28;20180;-60
2022/05/22 05:47:47;;;;;;;3.47;1.70;;;;;;;24.18;37.45;97825.97;5021362;28;20185;-61
2022/05/22 05:50:15;;;;;;;4.90;1.80;;;;;;;24.17;35.93;97826.19;5017545;28;20177;-60
2022/05/22 05:52:41;;;;;;;4.20;1.60;;;;;;;24.20;35.71;97816.81;5021855;28;20647;-60
2022/05/22 05:55:07;;;;;;;2.40;1.23;;;;;;;24.23;34.80;97820.88;5032493;28;20192;-61
2022/05/22 05:57:32;;;;;;;1.88;1.20;;;;;;;24.33;34.92;97814.16;5038938;28;20658;-60
2022/05/22 05:59:58;;;;;;;3.55;1.42;;;;;;;24.48;34.42;97806.81;5041781;28;20696;-61
2022/05/22 06:02:24;;;;;;;3.38;1.13;;;;;;;24.70;33.87;97808.22;5042157;28;20635;-60
2022/05/22 06:04:50;;;;;;;1.20;1.10;;;;;;;24.86;33.43;97810.41;5038116;28;20609;-61
2022/05/22 06:07:16;;;;;;;1.45;1.10;;;;;;;25.01;33.87;97800.38;5035308;28;20209;-60
2022/05/22 06:09:42;;;;;;;2.22;1.38;;;;;;;25.13;32.88;97798.69;5035558;28;20189;-60
2022/05/22 06:12:08;;;;;;;2.10;1.10;;;;;;;25.26;33.20;97793.34;5037179;28;20193;-60
2022/05/22 06:14:33;;;;;;;1.38;1.30;;;;;;;25.31;32.77;97800.66;5035122;28;20626;-60
2022/05/22 06:16:59;;;;;;;1.42;1.33;;;;;;;25.42;31.87;97816.69;5034047;28;20248;-61
2022/05/22 06:22:09;;;;;;;1.60;1.10;;;;;;;25.48;32.61;97807.88;5033301;28;20184;-60
2022/05/22 06:24:35;;;;;;;2.83;1.20;;;;;;;25.56;32.02;97815.59;5042489;28;20185;-61
2022/05/22 06:27:01;;;;;;;1.40;1.20;;;;;;;25.60;32.23;97806.19;5045279;28;20220;-60
2022/05/22 06:29:27;;;;;;;1.83;1.38;;;;;;;25.61;32.64;97796.41;5022634;28;20277;-60
2022/05/22 06:31:53;;;;;;;2.88;1.17;;;;;;;25.75;32.67;97804.06;5020146;28;20288;-60
2022/05/22 06:34:19;;;;;;;3.78;1.58;;;;;;;25.73;31.89;97821.97;5023880;28;20185;-60
2022/05/22 06:36:44;;;;;;;2.50;1.02;;;;;;;25.79;32.51;97821.16;5042272;28;20192;-60
2022/05/22 06:41:54;;;;;;;2.00;1.30;;;;;;;25.90;32.42;97812.50;5040622;28;20188;-60
2022/05/22 06:44:19;;;;;;;3.05;1.48;;;;;;;25.93;32.57;97804.16;5040727;28;20181;-60
2022/05/22 06:46:44;;;;;;;1.80;1.40;;;;;;;26.03;33.27;97811.59;5033432;28;20174;-60
2022/05/22 06:49:10;;;;;;;5.45;1.42;;;;;;;26.12;32.49;97818.28;5029980;28;20548;-60
2022/05/22 06:51:36;;;;;;;1.23;1.10;;;;;;;26.17;32.54;97813.09;5019127;28;20643;-60
2022/05/22 06:54:01;;;;;;;1.17;0.98;;;;;;;26.13;31.59;97818.03;5021203;28;20198;-60
2022/05/22 06:56:27;;;;;;;0.95;0.93;;;;;;;26.20;31.46;97820.66;5031050;28;20604;-60
2022/05/22 06:58:52;;;;;;;3.10;1.13;;;;;;;26.25;32.45;97805.69;5037038;28;20620;-60
2022/05/22 07:01:17;;;;;;;3.53;1.52;;;;;;;26.35;31.26;97819.28;5038857;28;20182;-60
2022/05/22 07:03:43;;;;;;;3.15;1.30;;;;;;;26.49;32.05;97817.31;5040497;28;20208;-60
2022/05/22 07:06:08;;;;;;;6.28;1.17;;;;;;;26.64;31.85;97826.56;5034634;28;20184;-60
2022/05/22 07:08:34;;;;;;;2.20;1.00;;;;;;;26.73;30.89;97817.31;5047426;28;20235;-60
2022/05/22 07:13:43;;;;;;;6.30;1.38;;;;;;;26.66;31.25;97819.19;5019410;28;20265;-60
2022/05/22 07:16:09;;;;;;;2.75;1.20;;;;;;;26.59;31.21;97815.81;5021756;28;20194;-60
2022/05/22 07:18:34;;;;;;;3.13;1.10;;;;;;;26.44;31.08;97825.13;5041025;28;20193;-61
2022/05/22 07:21:00;;;;;;;2.20;1.15;;;;;;;26.39;31.84;97817.81;5038066;28;21009;-61
2022/05/22 07:23:25;;;;;;;2.28;1.10;;;;;;;26.38;31.67;97826.81;5038402;28;20185;-61
2022/05/22 07:25:53;;;;;;;3.42;1.20;;;;;;;26.36;31.46;97823.53;5042520;28;20242;-61
2022/05/22 07:28:19;;;;;;;3.10;1.25;;;;;;;26.29;31.82;97832.63;5040129;28;20196;-61
2022/05/22 07:30:45;;;;;;;4.30;1.27;;;;;;;26.22;31.71;97827.38;5037686;28;20190;-61
2022/05/22 07:33:11;;;;;;;1.60;1.50;;;;;;;26.13;32.48;97841.91;5035172;28;20754;-61
2022/05/22 07:35:36;;;;;;;3.78;1.30;;;;;;;25.95;32.00;97827.81;5039649;28;20211;-60
2022/05/22 07:38:02;;;;;;;2.67;1.50;;;;;;;25.72;32.42;97828.31;5041115;28;20213;-60
2022/05/22 07:40:29;;;;;;;5.00;1.48;;;;;;;25.76;32.75;97842.78;5034032;28;20646;-62
2022/05/22 07:42:54;;;;;;;2.65;1.20;;;;;;;25.81;33.02;97832.34;5045730;28;20192;-61
2022/05/22 07:45:20;;;;;;;1.88;1.10;;;;;;;25.89;33.13;97847.97;5035752;28;20556;-61
2022/05/22 07:47:45;;;;;;;3.70;1.40;;;;;;;25.89;33.96;97828.63;5038107;28;20185;-61
2022/05/22 07:50:17;;;;;;;1.35;1.00;;;;;;;25.83;33.29;97826.84;5041182;28;20180;-61
2022/05/22 07:52:46;;;;;;;2.30;1.50;;;;;;;25.88;33.47;97838.41;5036917;28;20678;-60
2022/05/22 07:55:17;;;;;;;2.53;1.10;;;;;;;25.90;33.75;97827.63;5037936;28;20734;-61
2022/05/22 07:57:44;;;;;;;2.63;1.30;;;;;;;25.88;34.19;97825.16;5039648;28;20220;-61
2022/05/22 08:00:11;;;;;;;1.23;1.10;;;;;;;25.91;33.97;97822.13;5041022;28;20204;-61
2022/05/22 08:02:37;;;;;;;1.40;1.17;;;;;;;25.87;33.88;97810.28;5043941;28;20524;-61
2022/05/22 08:05:04;;;;;;;1.70;1.13;;;;;;;25.82;34.79;97798.69;5046786;28;20670;-61
2022/05/22 08:07:30;;;;;;;2.83;1.23;;;;;;;25.99;34.20;97816.53;5040350;28;20216;-60
2022/05/22 08:09:56;;;;;;;1.45;1.13;;;;;;;26.12;33.95;97826.25;5033485;28;20174;-61
2022/05/22 08:12:21;;;;;;;1.02;1.00;;;;;;;26.13;33.30;97823.34;5034882;28;20196;-62
2022/05/22 08:14:48;;;;;;;6.90;1.60;;;;;;;26.09;34.40;97803.63;5020789;28;20292;-63
2022/05/22 08:17:15;;;;;;;1.30;1.13;;;;;;;26.22;34.04;97819.41;5018824;28;20186;-62
2022/05/22 08:19:41;;;;;;;6.07;1.27;;;;;;;26.29;34.49;97809.53;5022518;28;20240;-62
2022/05/22 08:22:07;;;;;;;1.30;1.20;;;;;;;26.42;34.50;97805.97;5031839;28;20197;-61
2022/05/22 08:24:33;;;;;;;3.10;1.40;;;;;;;26.47;33.87;97809.56;5030838;28;20182;-61
2022/05/22 08:26:58;;;;;;;3.10;1.48;;;;;;;26.42;34.29;97801.44;5032707;28;20669;-61
2022/05/22 08:29:23;;;;;;;1.50;1.40;;;;;;;26.49;33.95;97806.69;5042816;28;20692;-61
2022/05/22 08:31:49;;;;;;;1.65;1.10;;;;;;;26.53;34.31;97808.69;5040663;28;20189;-61
2022/05/22 08:34:14;;;;;;;1.30;1.20;;;;;;;26.59;32.97;97807.84;5046224;28;20215;-61
2022/05/22 08:36:41;;;;;;;2.15;1.27;;;;;;;26.60;34.50;97804.16;5016989;28;20189;-61
2022/05/22 08:39:06;;;;;;;2.17;1.10;;;;;;;26.68;34.45;97801.22;5018867;28;20548;-61
2022/05/22 08:41:43;;;;;;;1.42;1.33;;;;;;;26.79;33.56;97807.63;5026656;28;20680;-62
2022/05/22 08:44:14;;;;;;;2.83;1.30;;;;;;;26.73;33.44;97814.66;5041129;28;20174;-62
2022/05/22 08:47:06;;;;;;;3.55;1.38;;;;;;;26.72;34.01;97804.25;5031907;28;20243;-62
2022/05/22 08:49:47;;;;;;;1.05;1.05;;;;;;;26.80;34.63;97804.75;5036149;28;20678;-61
2022/05/22 08:52:31;;;;;;;1.52;1.27;;;;;;;26.83;33.47;97814.91;5037804;28;20184;-61
2022/05/22 08:55:12;;;;;;;4.25;1.20;;;;;;;26.77;32.98;97804.41;5040069;28;20728;-61
2022/05/22 09:00:40;;;;;;;1.67;1.35;;;;;;;26.81;33.69;97800.25;5027475;28;20205;-61
2022/05/22 09:03:26;;;;;;;3.35;1.10;;;;;;;26.85;34.28;97798.78;5039412;28;20239;-62
2022/05/22 09:05:59;;;;;;;3.10;1.25;;;;;;;26.88;33.72;97791.16;5034735;28;20552;-62
2022/05/22 09:08:36;;;;;;;1.20;1.05;;;;;;;26.60;33.45;97753.72;5036068;28;20680;-62
2022/05/22 09:11:20;;;;;;;2.38;1.20;;;;;;;26.81;33.76;97790.44;5032835;28;20712;-62
2022/05/22 09:14:03;;;;;;;1.25;1.17;;;;;;;26.86;34.31;97782.63;5039306;28;20374;-62
2022/05/22 09:16:33;;;;;;;1.10;1.00;;;;;;;26.95;34.03;97770.66;5033532;28;20173;-61
2022/05/22 09:19:22;;;;;;;7.30;2.30;;;;;;;26.97;34.07;97757.97;5014937;28;20201;-62
2022/05/22 09:22:10;;;;;;;5.70;1.23;;;;;;;27.13;33.88;97752.06;5018767;28;20189;-62
2022/05/22 09:24:44;;;;;;;3.10;2.10;;;;;;;27.23;34.29;97755.00;5041566;28;20268;-61
2022/05/22 09:27:42;;;;;;;4.13;1.42;;;;;;;27.39;33.26;97751.69;5034112;28;20185;-61
2022/05/22 09:30:48;;;;;;;1.38;1.27;;;;;;;27.60;33.15;97756.50;5034308;28;20572;-62
2022/05/22 09:33:29;;;;;;;4.80;1.13;;;;;;;27.78;33.65;97768.94;5036798;28;20220;-63
2022/05/22 09:36:18;;;;;;;4.03;1.52;;;;;;;27.94;30.87;97763.72;5046673;28;20191;-62
2022/05/22 09:39:19;;;;;;;1.50;1.38;;;;;;;27.94;30.43;97766.41;5020460;28;20213;-61
2022/05/22 09:42:14;;;;;;;1.58;1.27;;;;;;;27.86;30.55;97757.97;5017326;28;20268;-62
2022/05/22 09:44:42;;;;;;;1.58;1.27;;;;;;;27.88;30.92;97758.53;5030018;28;20181;-62
2022/05/22 09:47:28;;;;;;;3.60;1.10;;;;;;;27.89;30.29;97754.84;5036757;28;20189;-62
2022/05/22 09:50:05;;;;;;;1.20;1.10;;;;;;;27.84;29.80;97744.06;5036932;28;20181;-61
2022/05/22 09:52:36;;;;;;;4.85;0.93;;;;;;;27.92;30.20;97743.75;5036914;28;20228;-62
2022/05/22 09:55:42;;;;;;;2.17;1.13;;;;;;;27.83;30.88;97747.78;5038522;28;20194;-62
2022/05/22 09:58:52;;;;;;;2.03;1.10;;;;;;;27.87;30.78;97740.97;5028753;28;20271;-61
2022/05/22 10:01:37;;;;;;;2.38;1.50;;;;;;;27.98;32.03;97746.28;5032241;28;20192;-62
2022/05/22 10:04:15;;;;;;;2.70;1.17;;;;;;;28.09;31.20;97734.03;5037548;28;20258;-62
2022/05/22 10:07:23;;;;;;;2.92;1.05;;;;;;;28.17;31.95;97734.47;5040604;28;20238;-62
2022/05/22 10:09:49;;;;;;;1.55;1.30;;;;;;;28.34;32.27;97727.41;5034328;28;20328;-62
2022/05/22 10:12:20;;;;;;;2.90;1.38;;;;;;;28.43;32.34;97726.06;5028624;28;20234;-61
2022/05/22 10:14:57;;;;;;;3.30;1.23;;;;;;;28.48;32.88;97725.34;5027499;28;20181;-61
2022/05/22 10:17:44;;;;;;;1.45;1.30;;;;;;;28.62;32.99;97722.19;5034513;28;20208;-62
2022/05/22 10:20:30;;;;;;;0.93;0.88;;;;;;;28.62;31.82;97726.72;5038377;28;20702;-62
2022/05/22 10:23:13;;;;;;;1.20;1.20;;;;;;;28.70;31.96;97748.47;5035537;28;20173;-61
2022/05/22 10:26:01;;;;;;;1.80;1.23;;;;;;;28.62;31.96;97740.81;5038775;28;20173;-62
2022/05/22 10:28:36;;;;;;;1.23;1.13;;;;;;;28.49;31.64;97742.94;5036966;28;20173;-61
2022/05/22 10:31:25;;;;;;;2.42;1.10;;;;;;;28.36;31.75;97741.31;5040270;28;20205;-59
2022/05/22 10:34:24;;;;;;;1.95;0.90;;;;;;;28.39;32.20;97748.06;5042793;28;20267;-62
2022/05/22 10:36:55;;;;;;;1.58;1.20;;;;;;;28.37;31.57;97750.13;5041380;28;20181;-60
2022/05/22 10:39:21;;;;;;;1.50;1.40;;;;;;;28.26;31.83;97746.41;5036125;28;20703;-61
2022/05/22 10:44:48;;;;;;;2.10;1.10;;;;;;;28.30;31.24;97749.41;5036436;28;20275;-63
2022/05/22 10:47:13;;;;;;;1.15;1.08;;;;;;;28.33;30.98;97760.41;5040798;28;20193;-63
2022/05/22 10:49:42;;;;;;;2.17;1.20;;;;;;;28.34;31.69;97745.25;5037906;28;20185;-63
2022/05/22 10:52:23;;;;;;;2.58;1.20;;;;;;;28.46;30.54;97733.56;5045520;28;20227;-63
2022/05/22 10:54:52;;;;;;;3.08;1.35;;;;;;;28.51;30.45;97725.69;5046076;28;20219;-63
2022/05/22 10:57:21;;;;;;;2.60;1.20;;;;;;;28.36;30.39;97728.00;5037506;28;20231;-63
2022/05/22 10:59:47;;;;;;;1.38;1.20;;;;;;;28.38;31.69;97725.94;5038901;28;20201;-62
2022/05/22 11:02:28;;;;;;;4.57;1.33;;;;;;;28.46;31.23;97716.78;5042727;28;20189;-63
2022/05/22 11:04:55;;;;;;;3.50;1.02;;;;;;;28.64;30.55;97730.78;5035171;28;20267;-63
2022/05/22 11:07:30;;;;;;;1.38;1.27;;;;;;;28.80;30.83;97715.91;5036079;28;20239;-63
2022/05/22 11:10:05;;;;;;;3.22;1.08;;;;;;;29.00;30.96;97722.47;5032892;28;20184;-63
2022/05/22 11:12:30;;;;;;;1.52;1.20;;;;;;;29.13;30.30;97713.34;5032049;28;20670;-63
2022/05/22 11:15:05;;;;;;;1.13;1.08;;;;;;;29.00;30.92;97709.13;5043522;28;20270;-63
2022/05/22 11:17:31;;;;;;;1.27;1.17;;;;;;;29.09;31.10;97718.34;5033572;28;20902;-64
2022/05/22 11:20:08;;;;;;;1.88;1.35;;;;;;;29.01;31.68;97700.09;5041082;28;20235;-63
2022/05/22 11:23:03;;;;;;;3.20;1.13;;;;;;;28.93;31.42;97707.63;5042457;28;20183;-63
2022/05/22 11:25:29;;;;;;;1.52;1.17;;;;;;;29.09;31.20;97697.03;5017678;28;20174;-63
2022/05/22 11:27:57;;;;;;;2.90;1.02;;;;;;;29.07;30.95;97703.66;5020685;28;20725;-62
2022/05/22 11:30:37;;;;;;;1.90;1.38;;;;;;;29.10;30.59;97708.50;5029073;28;20211;-62
2022/05/22 11:33:37;;;;;;;2.35;1.00;;;;;;;29.28;29.54;97695.78;5036029;28;20542;-64
2022/05/22 11:36:30;;;;;;;3.03;1.42;;;;;;;29.41;29.62;97684.00;5044704;28;20188;-64
2022/05/22 11:39:03;;;;;;;1.02;1.00;;;;;;;29.78;30.36;97690.50;5042818;28;20223;-63
2022/05/22 11:41:35;;;;;;;3.40;1.10;;;;;;;30.09;28.51;97706.72;5033280;28;20182;-64
2022/05/22 11:44:19;;;;;;;1.83;1.00;;;;;;;30.14;28.18;97680.13;5035443;28;21076;-60
2022/05/22 11:47:04;;;;;;;2.08;1.50;;;;;;;30.29;27.87;97680.34;5018342;28;20267;-61
2022/05/22 11:49:33;;;;;;;1.35;1.25;;;;;;;30.35;27.89;97676.69;5020992;28;20170;-62
2022/05/22 11:52:04;;;;;;;4.70;1.33;;;;;;;30.47;27.60;97673.88;5034464;28;20225;-61
2022/05/22 11:54:38;;;;;;;1.50;1.30;;;;;;;30.68;28.72;97662.41;5041655;28;20185;-62
2022/05/22 11:57:25;;;;;;;2.25;1.20;;;;;;;30.61;28.15;97667.91;5033713;28;20216;-63
2022/05/22 12:00:17;;;;;;;1.30;1.20;;;;;;;30.37;28.75;97657.75;5040655;28;20276;-62
2022/05/22 12:03:18;;;;;;;1.20;1.10;;;;;;;30.24;29.08;97650.91;5042349;28;20211;-62
2022/05/22 12:05:52;;;;;;;1.25;1.15;;;;;;;30.23;29.57;97651.97;5023683;28;20203;-62
2022/05/22 12:08:30;;;;;;;1.67;1.25;;;;;;;30.47;30.05;97649.84;5019199;28;20851;-62
2022/05/22 12:11:04;;;;;;;2.83;1.50;;;;;;;30.80;29.14;97655.88;5021969;28;20173;-62